Time;durP1;ratioP1;P1;durP2;ratioP2;P2;SDS_P1;SDS_P2;PMS_P1;PMS_P2;Temp;Humidity;BMP_temperature;BMP_pressure;BME280_temperature;BME280_humidity;BME280_pressure;Samples;Min_cycle;Max_cycle;Signal;HPM_P1;HPM_P2
2023/03/13 00:01:54;;;;;;;;;;;24.80;76.90;;;;;;1832195;78;20225;-82
2023/03/13 00:04:24;;;;;;;;;;;24.80;76.90;;;;;;1833672;78;20190;-81
2023/03/13 00:06:53;;;;;;;;;;;24.80;77.20;;;;;;1831791;78;20282;-81
2023/03/13 00:09:23;;;;;;;;;;;24.80;76.90;;;;;;1819717;78;20207;-80
2023/03/13 00:11:53;;;;;;;;;;;24.80;76.90;;;;;;1829872;78;20560;-81
2023/03/13 00:14:23;;;;;;;;;;;24.80;77.30;;;;;;1803368;79;20201;-80
2023/03/13 00:16:52;;;;;;;;;;;24.80;77.30;;;;;;1829526;78;20254;-81
2023/03/13 00:19:22;;;;;;;;;;;24.90;77.30;;;;;;1830548;78;20222;-81
2023/03/13 00:21:52;;;;;;;;;;;24.90;77.30;;;;;;1829752;78;20466;-81
2023/03/13 00:24:21;;;;;;;;;;;24.90;77.20;;;;;;1829633;78;20501;-82
2023/03/13 00:26:51;;;;;;;;;;;24.90;77.10;;;;;;1843526;78;20239;-81
2023/03/13 00:29:21;;;;;;;;;;;24.90;76.80;;;;;;1838769;78;20204;-81
2023/03/13 00:31:50;;;;;;;;;;;24.90;77.00;;;;;;1851960;76;20172;-81
2023/03/13 00:34:21;;;;;;;;;;;24.90;77.20;;;;;;1844948;78;20222;-82
2023/03/13 00:36:51;;;;;;;;;;;24.90;76.80;;;;;;1788799;79;20174;-81
2023/03/13 00:39:21;;;;;;;;;;;24.90;77.10;;;;;;1848365;78;20247;-82
2023/03/13 00:41:51;;;;;;;;;;;25.00;76.70;;;;;;1874314;74;20183;-82
2023/03/13 00:44:20;;;;;;;;;;;25.00;76.50;;;;;;1859136;77;20214;-81
2023/03/13 00:46:50;;;;;;;;;;;25.00;76.50;;;;;;1878076;76;20261;-81
2023/03/13 00:49:20;;;;;;;;;;;25.00;76.60;;;;;;1880162;76;20241;-82
2023/03/13 00:51:49;;;;;;;;;;;25.00;76.60;;;;;;1884018;75;20687;-83
2023/03/13 00:54:19;;;;;;;;;;;25.10;76.50;;;;;;1904581;75;20166;-81
2023/03/13 00:56:49;;;;;;;;;;;25.10;77.00;;;;;;1886332;75;20513;-81
2023/03/13 00:59:19;;;;;;;;;;;25.10;76.60;;;;;;1880600;75;20195;-73
2023/03/13 01:01:49;;;;;;;;;;;25.10;77.00;;;;;;1885441;75;20181;-71
2023/03/13 01:04:19;;;;;;;;;;;25.10;76.80;;;;;;1880126;75;20247;-72
2023/03/13 01:06:49;;;;;;;;;;;25.10;76.90;;;;;;1871559;75;20230;-72
2023/03/13 01:09:19;;;;;;;;;;;25.10;76.50;;;;;;1886854;75;20279;-71
2023/03/13 01:11:49;;;;;;;;;;;25.10;76.50;;;;;;1840383;76;20207;-72
2023/03/13 01:14:19;;;;;;;;;;;25.10;76.90;;;;;;1827763;78;20191;-71
2023/03/13 01:16:50;;;;;;;;;;;25.00;76.80;;;;;;1877007;75;20199;-71
2023/03/13 01:19:20;;;;;;;;;;;25.00;77.00;;;;;;1876236;75;20199;-72
2023/03/13 01:22:05;;;;;;;;;;;25.00;77.00;;;;;;1876184;74;20175;-72
2023/03/13 01:24:24;;;;;;;;;;;25.00;76.80;;;;;;1882944;75;20428;-73
2023/03/13 01:26:54;;;;;;;;;;;25.10;76.90;;;;;;1872200;75;20140;-73
2023/03/13 01:29:24;;;;;;;;;;;25.10;76.90;;;;;;1882898;74;20140;-73
2023/03/13 01:31:55;;;;;;;;;;;25.00;76.90;;;;;;1882596;75;21006;-72
2023/03/13 01:34:27;;;;;;;;;;;25.10;76.90;;;;;;1870682;75;20176;-72
2023/03/13 01:36:58;;;;;;;;;;;25.10;76.70;;;;;;1866951;76;20192;-72
2023/03/13 01:39:31;;;;;;;;;;;25.10;76.70;;;;;;1865656;77;20145;-71
2023/03/13 01:42:02;;;;;;;;;;;25.20;76.80;;;;;;1833023;76;20143;-72
2023/03/13 01:44:33;;;;;;;;;;;25.20;76.70;;;;;;1850672;76;20177;-72
2023/03/13 01:47:03;;;;;;;;;;;25.30;76.40;;;;;;1824500;76;20206;-72
2023/03/13 01:49:34;;;;;;;;;;;25.40;75.90;;;;;;1832844;76;20182;-71
2023/03/13 01:52:06;;;;;;;;;;;25.50;75.50;;;;;;1801022;77;20279;-73
2023/03/13 01:54:37;;;;;;;;;;;25.50;75.30;;;;;;1799694;78;20309;-72
2023/03/13 01:57:12;;;;;;;;;;;25.50;74.80;;;;;;1815281;78;20182;-71
2023/03/13 01:59:46;;;;;;;;;;;25.60;74.80;;;;;;1815907;78;20242;-72
2023/03/13 02:02:17;;;;;;;;;;;25.60;75.30;;;;;;1835552;77;20204;-74
2023/03/13 02:04:48;;;;;;;;;;;25.70;74.50;;;;;;1789575;78;20302;-73
2023/03/13 02:07:20;;;;;;;;;;;25.70;74.40;;;;;;1823365;78;20135;-84
2023/03/13 02:09:52;;;;;;;;;;;25.80;74.60;;;;;;1806736;78;20199;-83
2023/03/13 02:18:31;;;;;;;;;;;25.90;73.60;;;;;;1820643;78;20132;-87
2023/03/13 02:21:03;;;;;;;;;;;26.00;73.50;;;;;;1810541;78;20184;-88
2023/03/13 02:23:39;;;;;;;;;;;26.10;73.70;;;;;;1809786;78;20125;-85
2023/03/13 02:29:20;;;;;;;;;;;26.20;73.30;;;;;;1811308;78;20182;-84
2023/03/13 02:31:51;;;;;;;;;;;26.30;72.80;;;;;;1814022;78;20113;-85
2023/03/13 02:34:22;;;;;;;;;;;26.30;72.30;;;;;;1809381;78;20134;-85
2023/03/13 02:36:54;;;;;;;;;;;26.40;72.30;;;;;;1820349;78;20317;-85
2023/03/13 02:39:25;;;;;;;;;;;26.40;72.00;;;;;;1811595;75;20252;-72
2023/03/13 02:41:57;;;;;;;;;;;26.40;72.20;;;;;;1807840;78;20248;-72
2023/03/13 02:44:28;;;;;;;;;;;26.40;72.40;;;;;;1808833;78;20199;-74
2023/03/13 02:46:59;;;;;;;;;;;26.40;72.30;;;;;;1805051;79;20215;-72
2023/03/13 02:49:31;;;;;;;;;;;26.40;71.60;;;;;;1808473;78;20204;-73
2023/03/13 02:52:02;;;;;;;;;;;26.40;71.70;;;;;;1805425;78;20259;-72
2023/03/13 02:54:34;;;;;;;;;;;26.50;71.60;;;;;;1802927;78;20207;-73
2023/03/13 02:57:05;;;;;;;;;;;26.60;71.10;;;;;;1810443;77;20219;-73
2023/03/13 02:59:35;;;;;;;;;;;26.70;71.00;;;;;;1806231;78;20237;-72
2023/03/13 03:02:07;;;;;;;;;;;26.70;70.70;;;;;;1813954;78;20367;-73
2023/03/13 03:04:37;;;;;;;;;;;26.80;70.40;;;;;;1812069;78;20129;-73
2023/03/13 03:07:08;;;;;;;;;;;26.80;70.00;;;;;;1806531;78;20216;-72
2023/03/13 03:09:39;;;;;;;;;;;26.90;69.90;;;;;;1828401;76;20201;-73
2023/03/13 03:12:10;;;;;;;;;;;26.90;70.00;;;;;;1807783;77;20312;-74
2023/03/13 03:14:40;;;;;;;;;;;26.90;70.20;;;;;;1813017;78;20183;-74
2023/03/13 03:17:10;;;;;;;;;;;27.00;69.80;;;;;;1814306;77;20199;-72
2023/03/13 03:19:41;;;;;;;;;;;27.00;69.60;;;;;;1805318;77;20300;-72
2023/03/13 03:22:11;;;;;;;;;;;27.10;69.10;;;;;;1807088;77;20208;-71
2023/03/13 03:24:41;;;;;;;;;;;27.20;68.80;;;;;;1806554;78;20278;-71
2023/03/13 03:27:11;;;;;;;;;;;27.30;68.50;;;;;;1802399;77;20255;-72
2023/03/13 03:29:41;;;;;;;;;;;27.50;67.90;;;;;;1803908;77;20312;-71
2023/03/13 03:32:12;;;;;;;;;;;27.60;67.20;;;;;;1809138;77;20189;-72
2023/03/13 03:34:42;;;;;;;;;;;27.70;66.30;;;;;;1803152;78;20265;-72
2023/03/13 03:40:04;;;;;;;;;;;28.00;65.50;;;;;;1756829;80;20173;-71
2023/03/13 03:42:34;;;;;;;;;;;28.10;64.50;;;;;;1783883;78;20230;-71
2023/03/13 03:45:10;;;;;;;;;;;28.20;64.60;;;;;;1793667;79;20208;-72
2023/03/13 03:47:38;;;;;;;;;;;28.30;65.00;;;;;;1755875;81;20139;-72
2023/03/13 03:50:09;;;;;;;;;;;28.30;63.10;;;;;;1757904;80;20226;-73
2023/03/13 03:52:40;;;;;;;;;;;28.40;62.70;;;;;;1719566;81;20257;-73
2023/03/13 03:55:10;;;;;;;;;;;28.40;62.10;;;;;;1761403;80;20249;-73
2023/03/13 03:57:40;;;;;;;;;;;28.40;62.00;;;;;;1793792;78;20179;-73
2023/03/13 04:00:14;;;;;;;;;;;28.50;62.30;;;;;;1798975;78;20275;-73
2023/03/13 04:02:46;;;;;;;;;;;28.50;61.90;;;;;;1792315;78;20211;-72
2023/03/13 04:05:18;;;;;;;;;;;28.50;62.40;;;;;;1791464;79;20127;-73
2023/03/13 04:07:54;;;;;;;;;;;28.60;62.70;;;;;;1787749;79;20157;-72
2023/03/13 04:10:24;;;;;;;;;;;28.60;62.10;;;;;;1801036;78;20233;-72
2023/03/13 04:12:54;;;;;;;;;;;28.70;62.00;;;;;;1757410;80;20188;-73
2023/03/13 04:15:25;;;;;;;;;;;28.90;61.10;;;;;;1797268;78;20249;-71
2023/03/13 04:17:59;;;;;;;;;;;28.90;60.80;;;;;;1788551;78;20186;-71
2023/03/13 04:20:30;;;;;;;;;;;29.00;60.80;;;;;;1798160;78;20197;-73
2023/03/13 04:23:00;;;;;;;;;;;29.10;60.80;;;;;;1797333;79;20178;-73
2023/03/13 04:25:50;;;;;;;;;;;29.10;60.90;;;;;;1773218;79;20199;-71
2023/03/13 04:28:20;;;;;;;;;;;29.10;60.70;;;;;;1775079;79;20195;-72
2023/03/13 04:30:51;;;;;;;;;;;29.20;61.10;;;;;;1765120;79;20264;-72
2023/03/13 04:33:21;;;;;;;;;;;29.30;60.80;;;;;;1778272;79;20212;-73
2023/03/13 04:35:57;;;;;;;;;;;29.40;59.60;;;;;;1776053;79;20246;-74
2023/03/13 04:38:31;;;;;;;;;;;29.40;59.00;;;;;;1773447;79;20498;-74
2023/03/13 04:41:00;;;;;;;;;;;29.40;59.40;;;;;;1771589;79;20232;-72
2023/03/13 04:43:30;;;;;;;;;;;29.50;59.60;;;;;;1726958;81;20212;-74
2023/03/13 04:46:07;;;;;;;;;;;29.50;59.60;;;;;;1777583;79;20364;-72
2023/03/13 04:48:37;;;;;;;;;;;29.60;58.50;;;;;;1769395;79;20362;-72
2023/03/13 04:51:07;;;;;;;;;;;29.70;58.50;;;;;;1772022;79;20255;-72
2023/03/13 04:53:37;;;;;;;;;;;29.70;58.00;;;;;;1759812;79;20191;-74
2023/03/13 04:56:07;;;;;;;;;;;29.70;57.90;;;;;;1758856;81;20523;-73
2023/03/13 04:58:39;;;;;;;;;;;29.70;57.80;;;;;;1771893;79;20489;-73
2023/03/13 05:01:09;;;;;;;;;;;29.70;58.00;;;;;;1778913;79;20360;-73
2023/03/13 05:03:39;;;;;;;;;;;29.70;57.80;;;;;;1785695;79;20216;-73
2023/03/13 05:06:09;;;;;;;;;;;29.60;58.40;;;;;;1776342;79;20377;-74
2023/03/13 05:08:39;;;;;;;;;;;29.70;58.20;;;;;;1778561;79;20207;-74
2023/03/13 05:11:10;;;;;;;;;;;29.60;58.30;;;;;;1762211;78;20255;-74
2023/03/13 05:13:40;;;;;;;;;;;29.70;58.20;;;;;;1772319;78;20226;-73
2023/03/13 05:16:09;;;;;;;;;;;29.70;58.20;;;;;;1775487;79;20484;-74
2023/03/13 05:18:40;;;;;;;;;;;29.80;57.80;;;;;;1753071;80;20199;-74
2023/03/13 05:21:10;;;;;;;;;;;29.80;57.10;;;;;;1769524;79;20232;-73
2023/03/13 05:23:40;;;;;;;;;;;29.90;57.20;;;;;;1779288;79;20203;-73
2023/03/13 05:26:10;;;;;;;;;;;30.00;56.80;;;;;;1751126;80;20320;-74
2023/03/13 05:28:40;;;;;;;;;;;30.10;56.70;;;;;;1753418;80;20176;-74
2023/03/13 05:31:11;;;;;;;;;;;30.10;56.10;;;;;;1720037;81;20503;-74
2023/03/13 05:33:59;;;;;;;;;;;30.20;55.90;;;;;;1784149;79;20224;-74
2023/03/13 05:36:29;;;;;;;;;;;30.40;55.20;;;;;;1790710;80;20189;-73
2023/03/13 05:38:59;;;;;;;;;;;30.40;55.00;;;;;;1788717;79;20226;-74
2023/03/13 05:41:29;;;;;;;;;;;30.40;54.70;;;;;;1853467;76;20210;-74
2023/03/13 05:44:00;;;;;;;;;;;30.50;54.70;;;;;;1858096;76;20445;-73
2023/03/13 05:46:30;;;;;;;;;;;30.50;54.70;;;;;;1864233;76;20283;-75
2023/03/13 05:49:00;;;;;;;;;;;30.50;54.90;;;;;;1803743;78;20264;-76
2023/03/13 05:51:30;;;;;;;;;;;30.50;55.10;;;;;;1784259;79;20190;-75
2023/03/13 05:54:19;;;;;;;;;;;30.60;55.10;;;;;;1784255;79;20194;-75
2023/03/13 05:56:49;;;;;;;;;;;30.60;54.50;;;;;;1816465;78;20245;-73
2023/03/13 05:59:19;;;;;;;;;;;30.60;54.50;;;;;;1820750;77;20182;-75
2023/03/13 06:01:51;;;;;;;;;;;30.50;54.80;;;;;;1820054;78;20178;-75
2023/03/13 06:04:21;;;;;;;;;;;30.40;54.60;;;;;;1812202;78;20204;-73
2023/03/13 06:06:51;;;;;;;;;;;30.40;55.20;;;;;;1814859;78;20298;-74
2023/03/13 06:09:21;;;;;;;;;;;30.40;55.10;;;;;;1815728;77;20209;-75
2023/03/13 06:11:51;;;;;;;;;;;30.40;54.90;;;;;;1818650;78;20324;-75
2023/03/13 06:14:21;;;;;;;;;;;30.50;54.80;;;;;;1810140;78;20231;-73
2023/03/13 06:16:51;;;;;;;;;;;30.50;55.00;;;;;;1779397;80;20134;-74
2023/03/13 06:19:23;;;;;;;;;;;30.60;55.20;;;;;;1751506;80;20190;-75
2023/03/13 06:22:15;;;;;;;;;;;30.70;55.00;;;;;;1767436;80;20541;-75
2023/03/13 06:24:48;;;;;;;;;;;30.70;54.80;;;;;;1769273;79;20228;-75
2023/03/13 06:27:17;;;;;;;;;;;30.70;55.00;;;;;;1734063;80;20297;-72
2023/03/13 06:29:47;;;;;;;;;;;30.70;54.50;;;;;;1770662;79;20168;-73
2023/03/13 06:32:18;;;;;;;;;;;30.80;54.70;;;;;;1770535;79;20218;-73
2023/03/13 06:34:48;;;;;;;;;;;30.80;54.50;;;;;;1774384;79;20987;-72
2023/03/13 06:37:19;;;;;;;;;;;30.90;54.50;;;;;;1763462;79;20289;-74
2023/03/13 06:39:48;;;;;;;;;;;30.90;54.30;;;;;;1748179;80;20283;-73
2023/03/13 06:42:18;;;;;;;;;;;31.00;54.40;;;;;;1749742;80;20375;-73
2023/03/13 06:50:43;;;;;;;;;;;31.10;54.50;;;;;;1768971;79;20323;-74
2023/03/13 06:53:18;;;;;;;;;;;31.10;54.50;;;;;;1744460;80;20224;-75
2023/03/13 06:55:50;;;;;;;;;;;31.10;54.20;;;;;;1768452;79;20865;-74
2023/03/13 06:58:20;;;;;;;;;;;31.00;53.90;;;;;;1738546;80;20264;-75
2023/03/13 07:00:51;;;;;;;;;;;31.00;54.20;;;;;;1729045;80;20259;-73
2023/03/13 07:03:21;;;;;;;;;;;30.90;54.60;;;;;;1764239;79;20229;-75
2023/03/13 07:05:54;;;;;;;;;;;30.80;54.60;;;;;;1754890;79;20276;-73
2023/03/13 07:08:27;;;;;;;;;;;30.80;54.90;;;;;;1761548;80;20183;-71
2023/03/13 07:11:01;;;;;;;;;;;30.70;55.00;;;;;;1756120;80;20534;-73
2023/03/13 07:13:32;;;;;;;;;;;30.70;55.20;;;;;;1754215;80;20234;-75
2023/03/13 07:16:03;;;;;;;;;;;30.60;55.40;;;;;;1752557;80;20240;-74
2023/03/13 07:18:33;;;;;;;;;;;30.50;55.60;;;;;;1754632;80;20205;-76
2023/03/13 07:21:07;;;;;;;;;;;30.50;55.60;;;;;;1751756;80;20708;-73
2023/03/13 07:23:36;;;;;;;;;;;30.50;55.20;;;;;;1755208;80;20210;-75
2023/03/13 07:26:14;;;;;;;;;;;30.50;55.10;;;;;;1747207;80;20166;-76
2023/03/13 07:28:44;;;;;;;;;;;30.40;54.80;;;;;;1757878;80;20193;-78
2023/03/13 07:31:18;;;;;;;;;;;30.40;55.00;;;;;;1763586;80;20432;-75
2023/03/13 07:33:48;;;;;;;;;;;30.40;55.10;;;;;;1767943;81;20213;-74
2023/03/13 07:36:18;;;;;;;;;;;30.30;56.30;;;;;;1767404;80;20229;-70
2023/03/13 07:38:49;;;;;;;;;;;30.30;55.80;;;;;;1761447;80;20334;-77
2023/03/13 07:41:19;;;;;;;;;;;30.20;56.00;;;;;;1760826;80;20242;-76
2023/03/13 07:43:51;;;;;;;;;;;30.20;55.80;;;;;;1762068;81;20626;-75
2023/03/13 07:46:21;;;;;;;;;;;30.20;55.60;;;;;;1758140;80;20239;-73
2023/03/13 07:48:51;;;;;;;;;;;30.30;55.80;;;;;;1759592;80;20258;-75
2023/03/13 07:51:22;;;;;;;;;;;30.30;55.70;;;;;;1759236;80;20186;-73
2023/03/13 07:53:54;;;;;;;;;;;30.40;55.70;;;;;;1772329;79;20184;-76
2023/03/13 07:56:24;;;;;;;;;;;30.40;55.80;;;;;;1753514;80;20183;-74
2023/03/13 07:58:54;;;;;;;;;;;30.40;55.80;;;;;;1767627;80;20198;-75
2023/03/13 08:01:25;;;;;;;;;;;30.50;55.90;;;;;;1829702;78;20278;-74
2023/03/13 08:03:57;;;;;;;;;;;30.50;56.00;;;;;;1824669;77;21035;-73
2023/03/13 08:06:27;;;;;;;;;;;30.50;56.10;;;;;;1829570;77;20135;-73
2023/03/13 08:08:59;;;;;;;;;;;30.50;55.60;;;;;;1837318;78;20131;-73
2023/03/13 08:11:29;;;;;;;;;;;30.50;55.60;;;;;;1826820;77;20317;-73
2023/03/13 08:13:59;;;;;;;;;;;30.50;55.60;;;;;;1831250;77;20198;-72
2023/03/13 08:16:30;;;;;;;;;;;30.50;55.60;;;;;;1821227;77;20230;-73
2023/03/13 08:19:02;;;;;;;;;;;30.50;55.60;;;;;;1781587;78;20248;-74
2023/03/13 08:21:33;;;;;;;;;;;30.50;55.20;;;;;;1793260;79;20196;-74
2023/03/13 08:24:04;;;;;;;;;;;30.50;55.20;;;;;;1786376;80;20219;-77
2023/03/13 08:26:36;;;;;;;;;;;30.50;55.20;;;;;;1780097;80;20442;-74
2023/03/13 08:29:07;;;;;;;;;;;30.50;55.30;;;;;;1765301;80;20571;-73
2023/03/13 08:31:38;;;;;;;;;;;30.50;55.40;;;;;;1760904;80;20226;-73
2023/03/13 08:34:08;;;;;;;;;;;30.40;55.50;;;;;;1767837;80;20354;-77
2023/03/13 08:36:38;;;;;;;;;;;30.40;55.70;;;;;;1755299;80;20185;-73
2023/03/13 08:39:09;;;;;;;;;;;30.40;56.00;;;;;;1780426;79;20200;-74
2023/03/13 08:41:42;;;;;;;;;;;30.40;56.20;;;;;;1771670;80;20291;-75
2023/03/13 08:44:13;;;;;;;;;;;30.40;56.20;;;;;;1748054;81;20348;-73
2023/03/13 08:46:43;;;;;;;;;;;30.30;56.20;;;;;;1796465;78;20286;-73
2023/03/13 08:49:16;;;;;;;;;;;30.30;57.20;;;;;;1835077;77;20186;-73
2023/03/13 08:51:50;;;;;;;;;;;30.30;56.40;;;;;;1824309;78;20206;-74
2023/03/13 08:54:20;;;;;;;;;;;30.30;56.50;;;;;;1817417;78;20558;-75
2023/03/13 08:56:54;;;;;;;;;;;30.30;56.50;;;;;;1831609;78;20206;-75
2023/03/13 08:59:24;;;;;;;;;;;30.30;56.40;;;;;;1822995;77;20204;-74
2023/03/13 09:01:53;;;;;;;;;;;30.30;56.00;;;;;;1748234;80;20527;-73
2023/03/13 09:04:23;;;;;;;;;;;30.30;56.40;;;;;;1785256;79;20404;-74
2023/03/13 09:06:53;;;;;;;;;;;30.30;56.40;;;;;;1788167;79;20228;-73
2023/03/13 09:09:23;;;;;;;;;;;30.30;56.70;;;;;;1754759;80;20431;-75
2023/03/13 09:11:54;;;;;;;;;;;30.20;56.70;;;;;;1758194;80;20316;-75
2023/03/13 09:14:24;;;;;;;;;;;30.20;56.90;;;;;;1744338;81;20321;-75
2023/03/13 09:16:55;;;;;;;;;;;30.10;56.90;;;;;;1771070;80;20222;-73
2023/03/13 09:19:25;;;;;;;;;;;30.10;56.70;;;;;;1766854;80;20631;-73
2023/03/13 09:21:55;;;;;;;;;;;30.10;57.00;;;;;;1768119;80;20311;-74
2023/03/13 09:24:29;;;;;;;;;;;30.10;57.20;;;;;;1757981;80;20306;-74
2023/03/13 09:27:07;;;;;;;;;;;30.10;57.00;;;;;;1832193;78;20191;-73
2023/03/13 09:29:36;;;;;;;;;;;30.10;57.10;;;;;;1819576;77;20198;-73
2023/03/13 09:32:05;;;;;;;;;;;30.10;57.10;;;;;;1823243;77;20221;-75
2023/03/13 09:34:36;;;;;;;;;;;30.10;57.20;;;;;;1824407;77;20204;-75
2023/03/13 09:37:06;;;;;;;;;;;30.00;57.00;;;;;;1826787;77;20186;-72
2023/03/13 09:39:36;;;;;;;;;;;30.00;57.00;;;;;;1786332;78;20184;-74
2023/03/13 09:42:16;;;;;;;;;;;30.00;56.80;;;;;;1787944;79;20219;-75
2023/03/13 09:44:50;;;;;;;;;;;30.00;57.70;;;;;;1784361;79;20256;-75
2023/03/13 09:47:22;;;;;;;;;;;30.00;59.20;;;;;;1759006;80;20281;-75
2023/03/13 09:49:56;;;;;;;;;;;29.90;59.70;;;;;;1756455;80;20355;-75
2023/03/13 09:52:27;;;;;;;;;;;29.80;59.40;;;;;;1765514;80;20256;-74
2023/03/13 09:55:01;;;;;;;;;;;29.80;59.80;;;;;;1754177;80;20238;-75
2023/03/13 09:57:32;;;;;;;;;;;29.80;59.70;;;;;;1779271;79;20247;-75
2023/03/13 10:00:14;;;;;;;;;;;29.70;61.00;;;;;;1755491;80;20204;-74
2023/03/13 10:02:42;;;;;;;;;;;29.70;61.40;;;;;;1792645;78;20291;-74
2023/03/13 10:05:14;;;;;;;;;;;29.60;61.40;;;;;;1785095;79;20194;-74
2023/03/13 10:07:44;;;;;;;;;;;29.50;61.50;;;;;;1779774;79;20337;-74
2023/03/13 10:13:52;;;;;;;;;;;29.40;61.80;;;;;;1755125;80;20270;-75
2023/03/13 10:16:33;;;;;;;;;;;29.30;61.90;;;;;;1778195;79;20194;-75
2023/03/13 10:19:04;;;;;;;;;;;29.20;62.30;;;;;;1776923;79;20221;-74
2023/03/13 10:21:34;;;;;;;;;;;29.20;62.20;;;;;;1767816;80;20232;-74
2023/03/13 10:24:12;;;;;;;;;;;29.20;62.40;;;;;;1759469;80;20233;-75
2023/03/13 10:26:42;;;;;;;;;;;29.20;62.60;;;;;;1743502;81;20208;-75
2023/03/13 10:29:19;;;;;;;;;;;29.10;62.50;;;;;;1776393;78;20253;-74
2023/03/13 10:31:57;;;;;;;;;;;29.10;62.70;;;;;;1779602;78;20212;-74
2023/03/13 10:34:28;;;;;;;;;;;29.20;63.60;;;;;;1780780;78;20210;-75
2023/03/13 10:36:59;;;;;;;;;;;29.10;64.10;;;;;;1773780;79;20341;-74
2023/03/13 10:39:30;;;;;;;;;;;29.00;63.90;;;;;;1759152;80;20552;-74
2023/03/13 10:42:10;;;;;;;;;;;29.00;64.50;;;;;;1751829;80;20289;-74
2023/03/13 10:44:40;;;;;;;;;;;28.90;64.60;;;;;;1758606;81;20306;-73
2023/03/13 10:47:11;;;;;;;;;;;28.90;65.00;;;;;;1766798;80;20265;-73
2023/03/13 10:49:48;;;;;;;;;;;28.80;64.60;;;;;;1756427;80;20272;-75
2023/03/13 10:52:21;;;;;;;;;;;28.90;65.30;;;;;;1771773;80;20237;-75
2023/03/13 10:54:53;;;;;;;;;;;28.80;65.10;;;;;;1758466;81;20194;-73
2023/03/13 10:57:27;;;;;;;;;;;28.80;65.00;;;;;;1785746;79;20177;-73
2023/03/13 10:59:57;;;;;;;;;;;28.80;64.80;;;;;;1765296;79;20335;-74
2023/03/13 11:02:30;;;;;;;;;;;28.70;65.00;;;;;;1776468;80;20196;-74
2023/03/13 11:05:01;;;;;;;;;;;28.70;65.10;;;;;;1747346;80;20210;-74
2023/03/13 11:07:39;;;;;;;;;;;28.70;64.50;;;;;;1769515;79;20185;-75
2023/03/13 11:10:22;;;;;;;;;;;28.70;64.50;;;;;;1746148;81;20202;-74
2023/03/13 11:12:53;;;;;;;;;;;28.60;64.30;;;;;;1750904;81;20230;-75
2023/03/13 11:15:30;;;;;;;;;;;28.60;64.70;;;;;;1766734;79;20683;-81
2023/03/13 11:18:01;;;;;;;;;;;28.60;65.20;;;;;;1755020;79;20225;-83
2023/03/13 11:20:32;;;;;;;;;;;28.60;65.40;;;;;;1774816;79;20204;-83
2023/03/13 11:23:06;;;;;;;;;;;28.60;65.20;;;;;;1758856;80;20180;-82
2023/03/13 11:25:40;;;;;;;;;;;28.50;64.80;;;;;;1747263;81;20264;-81
2023/03/13 11:28:11;;;;;;;;;;;28.50;64.70;;;;;;1772090;79;20283;-81
2023/03/13 11:31:00;;;;;;;;;;;28.50;64.20;;;;;;1777384;79;20259;-84
2023/03/13 11:33:42;;;;;;;;;;;28.40;63.70;;;;;;1777008;79;20233;-79
2023/03/13 11:36:16;;;;;;;;;;;28.40;63.60;;;;;;1739526;80;20458;-80
2023/03/13 11:38:50;;;;;;;;;;;28.40;63.70;;;;;;1765823;80;20249;-79
2023/03/13 11:41:21;;;;;;;;;;;28.30;63.60;;;;;;1781124;79;20138;-80
2023/03/13 11:44:10;;;;;;;;;;;28.30;63.50;;;;;;1755216;80;20140;-80
2023/03/13 11:46:53;;;;;;;;;;;28.20;63.40;;;;;;1732902;82;20283;-80
2023/03/13 11:49:33;;;;;;;;;;;28.10;64.20;;;;;;1718898;82;20522;-79
2023/03/13 11:52:22;;;;;;;;;;;28.10;63.30;;;;;;1732231;81;20214;-80
2023/03/13 11:55:05;;;;;;;;;;;28.10;63.40;;;;;;1739788;82;20181;-80
2023/03/13 11:57:47;;;;;;;;;;;28.00;63.60;;;;;;1735153;81;20209;-79
2023/03/13 12:06:30;;;;;;;;;;;27.80;63.70;;;;;;1745316;81;20175;-79
2023/03/13 12:09:17;;;;;;;;;;;27.80;63.70;;;;;;1751446;81;20175;-78
2023/03/13 12:11:48;;;;;;;;;;;27.80;63.50;;;;;;1757850;80;20273;-79
2023/03/13 12:14:20;;;;;;;;;;;27.80;63.60;;;;;;1752381;79;20218;-80
2023/03/13 12:16:51;;;;;;;;;;;27.70;63.60;;;;;;1766054;80;20217;-80
2023/03/13 12:19:25;;;;;;;;;;;27.70;63.70;;;;;;1771120;80;20552;-79
2023/03/13 12:21:56;;;;;;;;;;;27.60;63.80;;;;;;1779875;79;20189;-79
2023/03/13 12:24:30;;;;;;;;;;;27.60;63.90;;;;;;1750254;81;20167;-80
2023/03/13 12:27:14;;;;;;;;;;;27.60;64.00;;;;;;1767115;80;20619;-79
2023/03/13 12:29:45;;;;;;;;;;;27.60;64.00;;;;;;1775963;80;20206;-79
2023/03/13 12:38:48;;;;;;;;;;;27.50;64.40;;;;;;1752421;82;20181;-80
2023/03/13 12:41:29;;;;;;;;;;;27.50;64.60;;;;;;1763086;80;20497;-81
2023/03/13 12:44:02;;;;;;;;;;;27.40;64.70;;;;;;1781961;80;20182;-81
2023/03/13 12:46:40;;;;;;;;;;;27.40;64.80;;;;;;1784338;80;20155;-79
2023/03/13 12:49:14;;;;;;;;;;;27.40;64.90;;;;;;1772044;80;20322;-81
2023/03/13 12:51:45;;;;;;;;;;;27.30;64.90;;;;;;1756821;82;20137;-80
2023/03/13 13:00:46;;;;;;;;;;;27.20;65.20;;;;;;1739740;81;20272;-78
2023/03/13 13:03:29;;;;;;;;;;;27.20;65.30;;;;;;1818853;78;20136;-79
2023/03/13 13:06:06;;;;;;;;;;;27.20;65.30;;;;;;1764251;80;20218;-79
2023/03/13 13:08:40;;;;;;;;;;;27.10;65.20;;;;;;1738983;80;20266;-80
2023/03/13 13:11:27;;;;;;;;;;;27.10;65.10;;;;;;1769517;80;20466;-79
2023/03/13 13:13:57;;;;;;;;;;;27.00;65.20;;;;;;1746408;81;20250;-80
2023/03/13 13:16:28;;;;;;;;;;;27.00;65.30;;;;;;1743535;81;20263;-79
2023/03/13 13:18:59;;;;;;;;;;;27.00;65.40;;;;;;1752424;81;20190;-78
2023/03/13 13:21:29;;;;;;;;;;;27.00;65.40;;;;;;1738942;80;20206;-80
2023/03/13 13:24:00;;;;;;;;;;;27.00;65.50;;;;;;1746352;80;20205;-80
2023/03/13 13:26:36;;;;;;;;;;;26.90;65.30;;;;;;1769250;80;20672;-80
2023/03/13 13:29:15;;;;;;;;;;;27.00;65.30;;;;;;1752453;80;20137;-79
2023/03/13 13:31:48;;;;;;;;;;;27.00;65.30;;;;;;1763683;80;20193;-79
2023/03/13 13:34:33;;;;;;;;;;;27.00;65.10;;;;;;1753306;80;20285;-79
2023/03/13 13:37:03;;;;;;;;;;;27.00;65.00;;;;;;1756613;80;20238;-79
2023/03/13 13:39:48;;;;;;;;;;;27.00;64.90;;;;;;1725209;82;20213;-79
2023/03/13 13:42:29;;;;;;;;;;;27.00;65.00;;;;;;1774211;80;20588;-79
2023/03/13 13:45:09;;;;;;;;;;;27.00;65.00;;;;;;1772672;80;20570;-79
2023/03/13 13:47:34;;;;;;;;;;;27.00;65.10;;;;;;1757583;80;20235;-79
2023/03/13 13:50:09;;;;;;;;;;;26.90;64.90;;;;;;1753359;80;20187;-79
2023/03/13 13:52:40;;;;;;;;;;;27.00;65.20;;;;;;1723390;82;20182;-79
2023/03/13 13:55:32;;;;;;;;;;;26.90;65.10;;;;;;1757133;80;20245;-80
2023/03/13 13:58:12;;;;;;;;;;;26.90;65.10;;;;;;1765503;80;20211;-80
2023/03/13 14:00:43;;;;;;;;;;;26.90;65.20;;;;;;1731272;82;20244;-78
2023/03/13 14:03:21;;;;;;;;;;;26.80;65.10;;;;;;1756395;80;20250;-79
2023/03/13 14:05:52;;;;;;;;;;;26.80;64.50;;;;;;1772723;80;20236;-80
2023/03/13 14:08:30;;;;;;;;;;;26.80;65.40;;;;;;1781915;80;20173;-81
2023/03/13 14:11:16;;;;;;;;;;;26.80;65.40;;;;;;1754931;80;20210;-78
2023/03/13 14:13:49;;;;;;;;;;;26.80;65.50;;;;;;1750861;81;20222;-80
2023/03/13 14:16:23;;;;;;;;;;;26.70;65.50;;;;;;1737114;81;20291;-78
2023/03/13 14:18:55;;;;;;;;;;;26.70;65.50;;;;;;1752529;81;20273;-81
2023/03/13 14:21:26;;;;;;;;;;;26.70;65.60;;;;;;1749260;81;20178;-79
2023/03/13 14:23:55;;;;;;;;;;;26.70;65.60;;;;;;1744336;81;20220;-80
2023/03/13 14:26:26;;;;;;;;;;;26.70;65.70;;;;;;1744619;81;20315;-80
2023/03/13 14:28:57;;;;;;;;;;;26.70;65.80;;;;;;1760297;81;20705;-79
2023/03/13 14:31:31;;;;;;;;;;;26.60;65.80;;;;;;1760485;81;20195;-79
2023/03/13 14:34:02;;;;;;;;;;;26.60;66.00;;;;;;1758536;81;20193;-80
2023/03/13 14:36:33;;;;;;;;;;;26.60;65.90;;;;;;1744275;81;20686;-80
2023/03/13 14:39:03;;;;;;;;;;;26.60;65.90;;;;;;1765447;80;20263;-78
2023/03/13 14:41:34;;;;;;;;;;;26.50;66.00;;;;;;1750697;82;20595;-79
2023/03/13 14:44:05;;;;;;;;;;;26.50;66.20;;;;;;1748359;82;20270;-82
2023/03/13 14:46:39;;;;;;;;;;;26.50;66.20;;;;;;1749971;81;20183;-79
2023/03/13 14:49:10;;;;;;;;;;;26.40;66.00;;;;;;1745770;82;20218;-80
2023/03/13 14:51:40;;;;;;;;;;;26.40;66.20;;;;;;1774594;81;20155;-78
2023/03/13 14:54:27;;;;;;;;;;;26.40;66.30;;;;;;1754840;80;20246;-79
2023/03/13 14:57:04;;;;;;;;;;;26.30;66.30;;;;;;1741927;81;20193;-79
2023/03/13 14:59:34;;;;;;;;;;;26.30;66.60;;;;;;1751991;81;20220;-80
2023/03/13 15:02:03;;;;;;;;;;;;;;;;;;1743636;81;20224;-79
2023/03/13 15:04:50;;;;;;;;;;;26.30;66.00;;;;;;1752100;80;20146;-79
2023/03/13 15:07:20;;;;;;;;;;;26.30;67.10;;;;;;1747454;81;20579;-79
2023/03/13 15:09:50;;;;;;;;;;;26.30;67.20;;;;;;1752233;80;20225;-80
2023/03/13 15:12:24;;;;;;;;;;;26.20;67.00;;;;;;1746847;80;20440;-80
2023/03/13 15:14:54;;;;;;;;;;;26.20;67.00;;;;;;1756645;80;20481;-80
2023/03/13 15:17:30;;;;;;;;;;;26.10;67.00;;;;;;1762680;80;20246;-78
2023/03/13 15:19:57;;;;;;;;;;;26.10;67.10;;;;;;1767319;80;20163;-79
2023/03/13 15:22:31;;;;;;;;;;;26.10;67.10;;;;;;1764870;80;20235;-79
2023/03/13 15:25:00;;;;;;;;;;;26.10;66.70;;;;;;1756588;80;20246;-79
2023/03/13 15:27:32;;;;;;;;;;;26.10;66.60;;;;;;1756445;80;20205;-80
2023/03/13 15:30:03;;;;;;;;;;;26.00;66.40;;;;;;1719500;82;20191;-79